Impacts TAF Board
For situational awareness. Not to be used for flight planning purposes.
IDs:

KHOU - Houston/Hobby Arpt, TX, US

Issued at 1120 UTC 17 Nov 2019
Updated at 1432 UTC 17 Nov 2019
Potential Impact None Slight Moderate High
Time1353Z 17/15Z 17/16Z 17/17Z 17/18Z 17/19Z 17/20Z 17/21Z 17/22Z 17/23Z 18/00Z 18/01Z 18/02Z 18/03Z>>
Type OBS PRVL PRVL PRVL PRVL PRVL PRVL PRVL PRVL PRVL PRVL PRVL PRVL PRVL
VIS 10 >6 >6 >6 >6 >6 >6 >6 >6 >6 >6 >6 >6 >6
CIG 250 250 250 250 250 250 250 250 250 250 250 250 250 --
Cover BKN OVC BKN BKN BKN BKN BKN BKN BKN BKN BKN BKN BKN FEW
FltCat VFR VFR VFR VFR VFR VFR VFR VFR VFR VFR VFR VFR VFR VFR
WX -- -- -- -- -- -- -- -- -- -- -- -- -- --
WDir VRB VRB 140 140 140 140 140 140 140 140 140 140 140 VRB
WSpd 0 2 5 5 5 5 5 5 5 5 5 5 5 3
WGst -- -- -- -- -- -- -- -- -- -- -- -- -- --
R04/22
XWnd VRB VRB -5 -5 -5 -5 -5 -5 -5 -5 -5 -5 -5 VRB
HWnd VRB VRB -1 -1 -1 -1 -1 -1 -1 -1 -1 -1 -1 VRB
R12/30
XWnd VRB VRB -1 -1 -1 -1 -1 -1 -1 -1 -1 -1 -1 VRB
HWnd VRB VRB 5 5 5 5 5 5 5 5 5 5 5 VRB
R17/35
XWnd VRB VRB 3 3 3 3 3 3 3 3 3 3 3 VRB
HWnd VRB VRB 4 4 4 4 4 4 4 4 4 4 4 VRB
Raw TAF
KHOU 171120Z 1712/1812 VRB02KT P6SM OVC250
  FM171600 14005KT P6SM FEW050 BKN250
  FM180300 VRB03KT P6SM FEW250


Raw METAR
KHOU 171353Z 00000KT 10SM FEW150 BKN250 09/05 A3010 RMK AO2 SLP199 T00890050
KHOU 171253Z 07003KT 10SM BKN250 07/04 A3008 RMK AO2 SLP191 T00720039
KHOU 171153Z 00000KT 10SM BKN250 06/04 A3007 RMK AO2 SLP187 T00610039 10083 20061 58005

METAR Board
Radar Display
Forecast Discussion
For situational awareness. Not to be used for flight planning purposes.